Time;durP1;ratioP1;P1;durP2;ratioP2;P2;SDS_P1;SDS_P2;PMS_P1;PMS_P2;Temp;Humidity;BMP_temperature;BMP_pressure;BME280_temperature;BME280_humidity;BME280_pressure;Samples;Min_cycle;Max_cycle;Signal;HPM_P1;HPM_P2
2022/09/20 00:00:40;;;;;;;1.20;0.67;;;26.80;83.00;;;;;;6069294;23;20180;-96
2022/09/20 00:03:17;;;;;;;1.13;0.67;;;26.70;80.50;;;;;;6068977;23;20195;-93
2022/09/20 00:05:48;;;;;;;2.90;0.80;;;26.60;84.70;;;;;;6070871;23;20195;-95
2022/09/20 00:08:20;;;;;;;3.00;0.90;;;26.40;82.20;;;;;;6071642;23;20246;-94
2022/09/20 00:10:52;;;;;;;0.67;0.67;;;26.10;83.60;;;;;;6072119;23;20202;-94
2022/09/20 00:13:24;;;;;;;1.20;0.70;;;25.80;83.80;;;;;;6068575;23;20203;-91
2022/09/20 00:15:55;;;;;;;0.80;0.70;;;25.40;83.50;;;;;;6068300;23;20174;-92
2022/09/20 00:18:29;;;;;;;1.53;0.70;;;25.20;85.90;;;;;;6068422;23;20180;-90
2022/09/20 00:21:01;;;;;;;1.57;0.80;;;25.00;86.30;;;;;;6045110;23;20176;-92
2022/09/20 00:23:32;;;;;;;1.03;0.67;;;24.80;85.90;;;;;;6067854;23;20179;-91
2022/09/20 00:26:05;;;;;;;1.27;0.70;;;24.70;89.60;;;;;;6068230;23;20186;-90
2022/09/20 00:28:36;;;;;;;1.67;0.80;;;24.60;85.30;;;;;;6068753;23;20172;-90
2022/09/20 00:31:09;;;;;;;1.30;0.60;;;24.50;85.20;;;;;;6067702;23;20183;-90
2022/09/20 00:36:29;;;;;;;2.37;0.90;;;24.50;85.90;;;;;;6070702;23;20681;-91
2022/09/20 00:39:03;;;;;;;2.10;0.93;;;24.40;87.00;;;;;;6069484;23;20179;-91
2022/09/20 00:41:35;;;;;;;1.60;1.30;;;24.40;86.00;;;;;;6072015;23;20172;-90
2022/09/20 00:44:38;;;;;;;2.77;0.80;;;24.30;85.60;;;;;;6069642;23;20198;-90
2022/09/20 00:47:17;;;;;;;3.27;0.83;;;24.10;86.10;;;;;;6047680;23;20183;-90
2022/09/20 00:49:57;;;;;;;2.00;0.63;;;24.00;86.20;;;;;;6072556;23;20235;-88
2022/09/20 00:52:30;;;;;;;4.00;0.90;;;23.80;85.90;;;;;;6045091;23;20486;-90
2022/09/20 00:55:03;;;;;;;1.13;0.60;;;23.70;86.00;;;;;;6070881;23;20204;-90
2022/09/20 00:57:35;;;;;;;1.10;0.53;;;23.60;86.60;;;;;;6069602;23;20169;-91
2022/09/20 01:00:11;;;;;;;1.03;0.70;;;23.50;86.30;;;;;;6070341;23;20519;-91
2022/09/20 01:02:48;;;;;;;2.07;0.60;;;23.30;86.60;;;;;;6069465;23;20178;-90
2022/09/20 01:05:23;;;;;;;1.30;0.57;;;23.20;86.90;;;;;;6070151;23;20558;-91
2022/09/20 01:07:56;;;;;;;1.70;0.73;;;23.10;85.80;;;;;;6069256;23;20171;-91
2022/09/20 01:10:27;;;;;;;0.67;0.60;;;22.90;86.10;;;;;;6068627;23;20491;-91
2022/09/20 01:12:58;;;;;;;0.80;0.60;;;22.90;88.10;;;;;;6067219;23;20499;-91
2022/09/20 01:15:35;;;;;;;2.73;0.80;;;22.80;88.10;;;;;;6043391;23;20183;-91
2022/09/20 01:18:08;;;;;;;0.90;0.50;;;22.70;84.40;;;;;;6070136;23;20677;-91
2022/09/20 01:20:44;;;;;;;2.20;0.77;;;22.70;84.50;;;;;;6069377;23;20183;-91
2022/09/20 01:23:39;;;;;;;1.23;0.60;;;22.60;87.20;;;;;;6066880;23;20180;-90
2022/09/20 01:26:38;;;;;;;0.87;0.70;;;22.50;83.60;;;;;;6068596;23;20510;-91
2022/09/20 01:29:23;;;;;;;1.90;1.13;;;22.40;81.90;;;;;;6065148;23;20192;-90
2022/09/20 01:31:59;;;;;;;3.30;3.00;;;22.30;83.80;;;;;;6067490;23;20852;-91
2022/09/20 01:34:34;;;;;;;2.40;1.73;;;22.20;81.90;;;;;;6069276;23;20230;-91
2022/09/20 01:37:13;;;;;;;1.50;1.13;;;22.10;82.20;;;;;;6069679;23;20175;-90
2022/09/20 01:39:55;;;;;;;3.73;1.10;;;22.00;82.50;;;;;;6046353;23;20178;-91
2022/09/20 01:42:31;;;;;;;3.27;1.07;;;22.00;84.90;;;;;;6071044;23;20187;-90
2022/09/20 01:45:12;;;;;;;1.57;0.77;;;21.70;84.20;;;;;;6073159;23;20632;-90
2022/09/20 01:47:52;;;;;;;1.00;0.80;;;21.60;84.70;;;;;;6046187;23;20184;-90
2022/09/20 01:50:34;;;;;;;1.63;1.07;;;21.50;84.80;;;;;;6070997;23;20293;-91
2022/09/20 01:53:44;;;;;;;2.07;1.00;;;21.40;86.40;;;;;;6068620;23;20182;-90
2022/09/20 01:56:59;;;;;;;1.33;0.87;;;21.20;90.10;;;;;;6072196;23;20198;-90
2022/09/20 02:00:01;;;;;;;1.37;0.90;;;21.00;89.60;;;;;;6051182;23;20182;-90
2022/09/20 02:02:52;;;;;;;1.27;1.10;;;20.90;89.20;;;;;;6066457;23;20283;-90
2022/09/20 02:05:42;;;;;;;4.13;1.20;;;20.70;90.00;;;;;;6068883;23;20688;-91
2022/09/20 02:08:46;;;;;;;2.07;0.97;;;20.50;91.20;;;;;;6069440;23;20657;-90
2022/09/20 02:11:20;;;;;;;2.00;1.17;;;20.40;91.70;;;;;;6070457;23;20180;-90
2022/09/20 02:14:07;;;;;;;1.67;1.10;;;20.30;90.70;;;;;;6069772;23;20203;-91
2022/09/20 02:16:49;;;;;;;1.93;1.53;;;20.10;92.50;;;;;;6073696;23;20186;-91
2022/09/20 02:19:41;;;;;;;2.10;1.30;;;19.90;91.30;;;;;;6084431;23;20176;-90
2022/09/20 02:22:40;;;;;;;4.43;1.40;;;19.70;92.20;;;;;;6087923;23;20223;-92
2022/09/20 02:25:29;;;;;;;4.30;1.20;;;19.70;92.90;;;;;;6070871;23;20166;-91
2022/09/20 02:28:14;;;;;;;3.17;1.40;;;19.50;93.60;;;;;;6084842;23;20188;-90
2022/09/20 02:30:55;;;;;;;3.30;1.70;;;19.40;93.60;;;;;;6073910;23;20219;-89
2022/09/20 02:33:46;;;;;;;2.20;1.80;;;19.20;94.30;;;;;;6069536;23;20254;-91
2022/09/20 02:36:36;;;;;;;4.40;1.90;;;19.10;94.50;;;;;;6072477;23;20175;-89
2022/09/20 02:39:15;;;;;;;3.43;2.10;;;18.90;95.20;;;;;;6071131;23;20194;-90
2022/09/20 02:42:00;;;;;;;2.73;1.67;;;18.80;95.70;;;;;;6068923;23;20175;-89
2022/09/20 02:44:48;;;;;;;4.07;1.80;;;18.70;96.00;;;;;;6071239;23;20191;-90
2022/09/20 02:47:27;;;;;;;2.73;1.67;;;18.50;96.60;;;;;;6040526;23;20404;-90
2022/09/20 02:50:19;;;;;;;5.57;2.00;;;18.40;97.50;;;;;;6065315;23;20227;-90
2022/09/20 02:53:13;;;;;;;5.97;2.90;;;18.30;97.70;;;;;;6064595;23;20255;-90
2022/09/20 02:55:58;;;;;;;4.50;2.40;;;18.20;98.40;;;;;;6043933;23;20674;-90
2022/09/20 02:58:41;;;;;;;3.50;2.23;;;18.10;98.90;;;;;;6064395;23;20240;-89
2022/09/20 03:01:26;;;;;;;3.83;2.50;;;18.00;99.60;;;;;;6073150;23;20184;-90
2022/09/20 03:04:08;;;;;;;4.80;2.63;;;17.90;99.90;;;;;;6070361;23;20170;-91
2022/09/20 03:06:50;;;;;;;3.40;2.30;;;17.60;99.90;;;;;;6073714;23;20175;-91
2022/09/20 03:09:35;;;;;;;3.03;2.00;;;17.60;99.90;;;;;;6070887;23;20235;-91
2022/09/20 03:12:21;;;;;;;6.07;1.90;;;17.40;99.90;;;;;;6047078;23;20204;-90
2022/09/20 03:15:09;;;;;;;7.10;2.30;;;17.30;99.90;;;;;;6071308;23;20200;-91
2022/09/20 03:17:51;;;;;;;4.10;1.80;;;17.30;99.90;;;;;;6069963;23;20176;-90
2022/09/20 03:20:35;;;;;;;4.27;1.97;;;17.20;99.90;;;;;;6068134;23;20218;-91
2022/09/20 03:23:18;;;;;;;8.73;2.27;;;17.10;99.90;;;;;;6065943;23;20179;-90
2022/09/20 03:25:58;;;;;;;4.67;2.20;;;17.00;99.90;;;;;;6066794;23;20184;-90
2022/09/20 03:28:56;;;;;;;5.87;2.30;;;17.00;99.90;;;;;;6066873;23;20182;-89
2022/09/20 03:31:46;;;;;;;3.57;1.93;;;16.90;99.90;;;;;;6066044;23;20211;-90
2022/09/20 03:34:31;;;;;;;3.37;1.73;;;16.90;99.90;;;;;;6066017;23;20192;-89
2022/09/20 03:37:22;;;;;;;2.77;1.77;;;16.80;99.90;;;;;;6041542;23;20168;-89
2022/09/20 03:40:24;;;;;;;4.80;1.80;;;16.80;99.90;;;;;;6067199;23;20202;-90
2022/09/20 03:43:06;;;;;;;4.10;2.47;;;16.70;99.90;;;;;;6069181;23;20901;-90
2022/09/20 03:45:52;;;;;;;5.67;2.43;;;16.60;99.90;;;;;;6070687;23;20267;-91
2022/09/20 03:48:57;;;;;;;3.03;1.87;;;16.60;99.90;;;;;;6071250;23;20219;-90
2022/09/20 03:51:33;;;;;;;5.40;2.70;;;16.50;99.90;;;;;;6067803;23;20180;-89
2022/09/20 03:54:57;;;;;;;3.57;2.43;;;16.40;99.90;;;;;;6071148;23;20271;-90
2022/09/20 03:57:41;;;;;;;2.40;2.03;;;16.40;99.90;;;;;;5955148;24;20194;-89
2022/09/20 04:00:26;;;;;;;3.80;2.23;;;16.40;99.90;;;;;;5957004;24;20182;-89
2022/09/20 04:03:21;;;;;;;5.07;2.50;;;16.30;99.90;;;;;;6047989;23;20189;-90
2022/09/20 04:06:11;;;;;;;4.17;2.50;;;16.30;99.90;;;;;;6074360;23;20180;-90
2022/09/20 04:09:02;;;;;;;4.77;2.30;;;16.30;99.90;;;;;;6091544;23;20179;-89
2022/09/20 04:11:41;;;;;;;4.30;2.60;;;16.20;99.90;;;;;;6081395;23;20211;-89
2022/09/20 04:14:18;;;;;;;5.20;2.57;;;16.20;99.90;;;;;;6075896;23;20182;-90
2022/09/20 04:16:59;;;;;;;5.70;2.40;;;16.20;99.90;;;;;;6078220;23;20183;-90
2022/09/20 04:19:40;;;;;;;5.60;2.60;;;16.20;99.90;;;;;;6072487;23;20180;-90
2022/09/20 04:22:12;;;;;;;5.57;2.90;;;16.20;99.90;;;;;;6071447;23;20199;-89
2022/09/20 04:24:51;;;;;;;6.93;2.90;;;16.10;99.90;;;;;;6071332;23;20180;-90
2022/09/20 04:27:29;;;;;;;6.67;3.17;;;16.10;99.90;;;;;;6071476;23;20230;-90
2022/09/20 04:30:07;;;;;;;6.57;2.83;;;16.10;99.90;;;;;;6071640;23;20163;-91
2022/09/20 04:32:50;;;;;;;4.67;2.90;;;16.10;99.90;;;;;;6069896;23;20258;-90
2022/09/20 04:38:25;;;;;;;4.80;2.80;;;16.00;99.90;;;;;;6071528;23;20247;-90
2022/09/20 04:41:22;;;;;;;6.10;2.60;;;15.90;99.90;;;;;;6071116;23;20611;-90
2022/09/20 04:44:30;;;;;;;4.80;2.93;;;15.90;99.90;;;;;;6065579;23;20638;-90
2022/09/20 04:47:54;;;;;;;5.87;3.00;;;15.90;99.90;;;;;;6071681;23;20255;-90
2022/09/20 04:50:58;;;;;;;3.83;2.70;;;15.80;99.90;;;;;;5944666;24;20214;-91
2022/09/20 04:54:13;;;;;;;5.00;2.97;;;15.70;99.90;;;;;;5948472;24;20305;-90
2022/09/20 04:57:05;;;;;;;8.13;2.97;;;15.60;99.90;;;;;;6074204;23;20196;-89
2022/09/20 04:59:55;;;;;;;6.70;3.00;;;15.50;99.90;;;;;;6076397;23;20175;-89
2022/09/20 05:03:12;;;;;;;6.23;3.47;;;15.40;99.90;;;;;;6047430;23;20175;-89
2022/09/20 05:06:04;;;;;;;9.90;3.50;;;15.40;99.90;;;;;;6073809;23;20183;-89
2022/09/20 05:09:08;;;;;;;6.27;2.73;;;15.40;99.90;;;;;;6074336;23;20172;-89
2022/09/20 05:12:02;;;;;;;5.20;3.10;;;15.30;99.90;;;;;;6069828;23;20180;-89
2022/09/20 05:14:56;;;;;;;5.67;2.87;;;15.30;99.90;;;;;;6072925;23;20623;-90
2022/09/20 05:17:52;;;;;;;5.17;2.80;;;15.20;99.90;;;;;;6072572;23;20231;-89
2022/09/20 05:20:47;;;;;;;10.07;2.77;;;15.20;99.90;;;;;;6043356;23;20259;-93
2022/09/20 05:23:47;;;;;;;3.93;2.63;;;15.20;99.90;;;;;;6073842;23;20172;-90
2022/09/20 05:26:35;;;;;;;5.20;2.83;;;15.20;99.90;;;;;;6072214;23;20180;-89
2022/09/20 05:29:21;;;;;;;3.77;2.67;;;15.20;99.90;;;;;;6075350;23;20182;-91
2022/09/20 05:31:57;;;;;;;3.67;2.40;;;15.20;99.90;;;;;;6070242;23;20182;-90
2022/09/20 05:34:41;;;;;;;4.70;2.87;;;15.10;99.90;;;;;;6072250;23;20275;-90
2022/09/20 05:37:23;;;;;;;4.93;2.80;;;15.00;99.90;;;;;;6073701;23;20291;-90
2022/09/20 05:40:00;;;;;;;4.53;2.53;;;15.00;99.90;;;;;;6071782;23;20195;-90
2022/09/20 05:42:43;;;;;;;7.07;2.83;;;15.00;99.90;;;;;;6072729;23;20184;-90
2022/09/20 05:45:45;;;;;;;7.20;2.90;;;14.90;99.90;;;;;;6089456;23;20187;-90
2022/09/20 05:48:24;;;;;;;3.27;2.40;;;14.90;99.90;;;;;;6100982;23;20661;-90
2022/09/20 05:51:01;;;;;;;5.20;2.60;;;14.80;99.90;;;;;;6106277;23;20226;-90
2022/09/20 05:54:05;;;;;;;4.67;2.43;;;14.70;99.90;;;;;;6098439;23;20575;-91
2022/09/20 05:56:46;;;;;;;4.60;2.30;;;14.70;99.90;;;;;;6027300;23;20194;-91
2022/09/20 05:59:32;;;;;;;3.23;2.57;;;14.60;99.90;;;;;;6099761;23;20173;-90
2022/09/20 06:02:26;;;;;;;4.90;2.80;;;14.50;99.90;;;;;;6097773;23;20172;-90
2022/09/20 06:05:05;;;;;;;6.33;2.50;;;14.50;99.90;;;;;;6100125;23;20186;-90
2022/09/20 06:07:56;;;;;;;7.03;2.90;;;14.50;99.90;;;;;;6104626;23;20179;-89
2022/09/20 06:10:51;;;;;;;7.47;2.97;;;14.50;99.90;;;;;;6100856;23;20164;-90
2022/09/20 06:13:51;;;;;;;2.70;2.20;;;14.40;99.90;;;;;;6104308;23;20179;-88
2022/09/20 06:16:32;;;;;;;7.43;2.57;;;14.40;99.90;;;;;;6102255;23;20195;-90
2022/09/20 06:19:13;;;;;;;3.70;2.43;;;14.40;99.90;;;;;;6102184;23;20226;-90
2022/09/20 06:21:53;;;;;;;3.87;2.50;;;14.30;99.90;;;;;;6101170;23;20186;-90
2022/09/20 06:24:37;;;;;;;3.53;2.37;;;14.30;99.90;;;;;;6106543;23;20168;-90
2022/09/20 06:27:13;;;;;;;3.70;2.40;;;14.20;99.90;;;;;;6103089;23;20231;-90
2022/09/20 06:29:50;;;;;;;5.27;2.40;;;14.20;99.90;;;;;;6101896;23;20189;-90
2022/09/20 06:32:21;;;;;;;5.67;2.63;;;14.10;99.90;;;;;;6106349;23;20182;-90
2022/09/20 06:34:55;;;;;;;5.80;2.43;;;14.10;99.90;;;;;;6121427;23;20247;-89
2022/09/20 06:43:26;;;;;;;3.87;2.70;;;14.00;99.90;;;;;;6102493;23;20179;-91
2022/09/20 06:45:57;;;;;;;4.07;2.60;;;14.00;99.90;;;;;;6076517;23;20203;-90
2022/09/20 06:48:30;;;;;;;4.50;2.40;;;14.00;99.90;;;;;;6076795;23;20180;-91
2022/09/20 06:51:04;;;;;;;3.70;2.23;;;13.90;99.90;;;;;;6075900;23;20186;-90
2022/09/20 06:53:39;;;;;;;3.97;2.33;;;13.90;99.90;;;;;;6048238;23;20180;-90
2022/09/20 06:56:16;;;;;;;4.07;2.50;;;13.90;99.90;;;;;;6072230;23;20210;-91
2022/09/20 06:58:48;;;;;;;4.40;2.60;;;13.80;99.90;;;;;;6069891;23;20176;-90
2022/09/20 07:01:19;;;;;;;3.93;2.30;;;13.80;99.90;;;;;;6068830;23;20184;-90
2022/09/20 07:04:00;;;;;;;4.90;2.50;;;13.80;99.90;;;;;;6068350;23;20179;-90
2022/09/20 07:06:33;;;;;;;5.50;2.13;;;13.70;99.90;;;;;;6068123;23;20561;-91
2022/09/20 07:09:04;;;;;;;5.67;2.60;;;13.70;99.90;;;;;;6067045;23;20180;-91
2022/09/20 07:11:35;;;;;;;4.37;2.40;;;13.70;99.90;;;;;;6068888;23;20259;-92
2022/09/20 07:14:06;;;;;;;6.43;2.40;;;13.70;99.90;;;;;;6068953;23;20180;-89
2022/09/20 07:16:55;;;;;;;4.37;2.37;;;13.60;99.90;;;;;;5026065;27;3089092;-89
2022/09/20 07:19:27;;;;;;;4.80;2.20;;;13.60;99.90;;;;;;5111842;28;20217;-90
2022/09/20 07:21:58;;;;;;;6.23;2.10;;;13.60;99.90;;;;;;5110601;28;20206;-90
2022/09/20 07:24:31;;;;;;;2.80;1.80;;;13.60;99.90;;;;;;5111740;28;20210;-90
2022/09/20 07:27:03;;;;;;;5.47;1.83;;;13.50;99.90;;;;;;5111977;28;20281;-90
2022/09/20 07:29:35;;;;;;;2.93;1.90;;;13.50;99.90;;;;;;5111790;28;20199;-90
2022/09/20 07:32:16;;;;;;;4.53;2.43;;;13.50;99.90;;;;;;5111217;28;20221;-90
2022/09/20 07:34:48;;;;;;;3.33;1.83;;;13.40;99.90;;;;;;5112418;28;20198;-90
2022/09/20 07:37:19;;;;;;;3.37;2.07;;;13.40;99.90;;;;;;5116488;28;20206;-90
2022/09/20 07:39:50;;;;;;;3.37;2.00;;;13.30;99.90;;;;;;5128710;28;20313;-90
2022/09/20 07:42:21;;;;;;;3.33;2.00;;;13.30;99.90;;;;;;5113171;28;20194;-91
2022/09/20 07:44:52;;;;;;;2.73;2.07;;;13.20;99.90;;;;;;5111352;28;20226;-91
2022/09/20 07:47:26;;;;;;;4.57;2.00;;;13.20;99.90;;;;;;5096614;28;20217;-90
2022/09/20 07:49:57;;;;;;;6.47;2.10;;;13.20;99.90;;;;;;5095943;28;20214;-90
2022/09/20 07:52:29;;;;;;;5.37;1.90;;;13.20;99.90;;;;;;5092713;28;20234;-91
2022/09/20 07:55:00;;;;;;;4.47;2.00;;;13.10;99.90;;;;;;5095981;28;20207;-91
2022/09/20 07:57:36;;;;;;;4.30;2.00;;;13.10;99.90;;;;;;5090993;28;20207;-90
2022/09/20 08:00:09;;;;;;;5.20;1.90;;;13.10;99.90;;;;;;5042487;28;20267;-90
2022/09/20 08:02:44;;;;;;;2.70;1.80;;;13.10;99.90;;;;;;5091197;28;20214;-89
2022/09/20 08:05:16;;;;;;;3.60;2.00;;;13.00;99.90;;;;;;5091139;28;20210;-91
2022/09/20 08:07:47;;;;;;;4.10;2.17;;;13.00;99.90;;;;;;5090749;28;20208;-90
2022/09/20 08:10:19;;;;;;;4.27;2.10;;;13.00;99.90;;;;;;5093788;28;20203;-90
2022/09/20 08:12:50;;;;;;;4.60;2.63;;;12.90;99.90;;;;;;5091964;28;20218;-89
2022/09/20 08:15:42;;;;;;;3.97;2.33;;;12.80;99.90;;;;;;5107300;28;20245;-89
2022/09/20 08:18:16;;;;;;;4.40;2.20;;;12.80;99.90;;;;;;5111073;28;20225;-89
2022/09/20 08:20:47;;;;;;;5.07;2.30;;;12.80;99.90;;;;;;5110886;28;20892;-90
2022/09/20 08:23:18;;;;;;;3.63;2.10;;;12.80;99.90;;;;;;5089573;28;20199;-90
2022/09/20 08:25:54;;;;;;;3.87;2.00;;;12.80;99.90;;;;;;5090443;28;20244;-90
2022/09/20 08:28:25;;;;;;;3.63;2.50;;;12.70;99.90;;;;;;5086759;28;20199;-90
2022/09/20 08:31:01;;;;;;;3.63;2.17;;;12.70;99.90;;;;;;5096994;28;20667;-89
2022/09/20 08:33:36;;;;;;;3.03;2.37;;;12.60;99.90;;;;;;5096960;28;20207;-90
2022/09/20 08:36:08;;;;;;;3.03;2.40;;;12.60;99.90;;;;;;5098062;28;20256;-90
2022/09/20 08:38:40;;;;;;;2.97;2.07;;;12.60;99.90;;;;;;5090235;28;20215;-89
2022/09/20 08:41:34;;;;;;;3.13;2.20;;;12.60;99.90;;;;;;5062551;28;20871;-91
2022/09/20 08:44:12;;;;;;;3.20;2.33;;;12.50;99.90;;;;;;5072894;28;20296;-90
2022/09/20 08:46:47;;;;;;;5.53;2.20;;;12.50;99.90;;;;;;5096838;28;20207;-90
2022/09/20 08:49:27;;;;;;;2.90;2.03;;;12.50;99.90;;;;;;5096368;28;20206;-89
2022/09/20 08:52:01;;;;;;;5.00;2.20;;;12.40;99.90;;;;;;5095553;28;20249;-90
2022/09/20 08:54:34;;;;;;;4.40;2.30;;;12.40;99.90;;;;;;5096873;28;20260;-90
2022/09/20 08:57:10;;;;;;;5.83;2.20;;;12.40;99.90;;;;;;5098423;28;20223;-90
2022/09/20 08:59:41;;;;;;;5.97;2.30;;;12.40;99.90;;;;;;5099194;28;20214;-89
2022/09/20 09:02:17;;;;;;;6.13;2.40;;;12.40;99.90;;;;;;5095849;28;20205;-90
2022/09/20 09:04:52;;;;;;;3.97;2.47;;;12.40;99.90;;;;;;5096704;28;20211;-90
2022/09/20 09:07:28;;;;;;;4.87;1.97;;;12.30;99.90;;;;;;5097645;28;20546;-90
2022/09/20 09:10:00;;;;;;;6.57;2.43;;;12.30;99.90;;;;;;5096181;28;20225;-90
2022/09/20 09:12:34;;;;;;;5.13;2.17;;;12.30;99.90;;;;;;5095608;28;20213;-89
2022/09/20 09:15:23;;;;;;;4.57;2.20;;;12.20;99.90;;;;;;5059050;28;20206;-90
2022/09/20 09:17:55;;;;;;;3.17;2.07;;;12.20;99.90;;;;;;5093218;28;20215;-90
2022/09/20 09:20:29;;;;;;;4.37;2.07;;;12.20;99.90;;;;;;5079269;28;20211;-90
2022/09/20 09:23:02;;;;;;;5.83;1.87;;;12.20;99.90;;;;;;5098044;28;20666;-89
2022/09/20 09:25:38;;;;;;;2.70;2.07;;;12.20;99.90;;;;;;5096245;28;20557;-90
2022/09/20 09:28:15;;;;;;;3.10;1.83;;;12.10;99.90;;;;;;5096030;28;20225;-91
2022/09/20 09:30:48;;;;;;;3.03;2.30;;;12.10;99.90;;;;;;5080930;28;20215;-91
2022/09/20 09:33:28;;;;;;;3.23;2.00;;;12.00;99.90;;;;;;5074959;28;20203;-89
2022/09/20 09:36:07;;;;;;;4.83;2.00;;;12.00;99.90;;;;;;5042584;28;20230;-90
2022/09/20 09:38:43;;;;;;;1.90;1.60;;;12.00;99.90;;;;;;5058436;28;20214;-90
2022/09/20 09:41:26;;;;;;;3.47;2.43;;;12.00;99.90;;;;;;5080332;28;20199;-92
2022/09/20 09:44:03;;;;;;;3.07;1.70;;;12.00;99.90;;;;;;5095983;28;20191;-92
2022/09/20 09:46:37;;;;;;;2.20;1.70;;;11.90;99.90;;;;;;5094657;28;20219;-90
2022/09/20 09:49:14;;;;;;;3.13;1.80;;;11.90;99.90;;;;;;5089210;28;20213;-90
2022/09/20 09:52:06;;;;;;;3.30;2.10;;;11.90;99.90;;;;;;5086473;28;20203;-90
2022/09/20 09:54:40;;;;;;;3.03;1.70;;;11.90;99.90;;;;;;5076472;28;20204;-91
2022/09/20 09:57:42;;;;;;;2.33;1.60;;;11.90;99.90;;;;;;5075171;28;20235;-90
2022/09/20 10:00:16;;;;;;;5.10;2.07;;;11.90;99.90;;;;;;5075297;28;20203;-91
2022/09/20 10:03:17;;;;;;;3.97;2.10;;;11.80;99.90;;;;;;5074724;28;20237;-90
2022/09/20 10:06:00;;;;;;;3.90;1.80;;;11.80;99.90;;;;;;5074526;28;20218;-90
2022/09/20 10:08:45;;;;;;;5.27;1.67;;;11.80;99.90;;;;;;5074387;28;20219;-91
2022/09/20 10:11:30;;;;;;;4.03;1.70;;;11.80;99.90;;;;;;5076933;28;20671;-89
2022/09/20 10:14:13;;;;;;;2.53;1.97;;;11.80;99.90;;;;;;5075271;28;20207;-89
2022/09/20 10:17:02;;;;;;;3.00;2.20;;;11.80;99.90;;;;;;5074200;28;20235;-90
2022/09/20 10:19:51;;;;;;;2.87;1.67;;;11.70;99.90;;;;;;5074563;28;20571;-90
2022/09/20 10:22:35;;;;;;;2.87;1.77;;;11.70;99.90;;;;;;5056834;28;20211;-90
2022/09/20 10:25:22;;;;;;;4.77;2.20;;;11.70;99.90;;;;;;5075265;28;20244;-89
2022/09/20 10:28:09;;;;;;;3.53;1.87;;;11.70;99.90;;;;;;5079725;28;20260;-90
2022/09/20 10:30:57;;;;;;;5.83;1.90;;;11.70;99.90;;;;;;5074049;28;20207;-90
2022/09/20 10:33:37;;;;;;;4.47;1.80;;;11.70;99.90;;;;;;5074748;28;20622;-90
2022/09/20 10:36:19;;;;;;;4.20;1.83;;;11.60;99.90;;;;;;5076086;28;20258;-90
2022/09/20 10:38:58;;;;;;;1.93;1.67;;;11.60;99.90;;;;;;5093115;28;20639;-89
2022/09/20 10:44:53;;;;;;;2.50;1.90;;;11.60;99.90;;;;;;5099242;28;20195;-91
2022/09/20 10:47:35;;;;;;;4.67;2.00;;;11.60;99.90;;;;;;5097945;28;20206;-90
2022/09/20 10:50:19;;;;;;;3.30;1.70;;;11.50;99.90;;;;;;5097690;28;20651;-91
2022/09/20 10:53:27;;;;;;;3.30;1.90;;;11.50;99.90;;;;;;5096675;28;20210;-91
2022/09/20 10:56:11;;;;;;;2.30;1.80;;;11.50;99.90;;;;;;5091833;28;20585;-90
2022/09/20 10:59:05;;;;;;;3.07;1.70;;;11.40;99.90;;;;;;5108458;28;20221;-89
2022/09/20 11:01:41;;;;;;;2.40;1.73;;;11.40;99.90;;;;;;5087165;28;20217;-93
2022/09/20 11:04:39;;;;;;;2.90;1.87;;;11.30;99.90;;;;;;5078169;28;20634;-90
2022/09/20 11:07:18;;;;;;;2.20;1.73;;;11.30;99.90;;;;;;5057720;28;20215;-90
2022/09/20 11:09:53;;;;;;;3.57;2.10;;;11.20;99.90;;;;;;5076710;28;20298;-91
2022/09/20 11:12:31;;;;;;;5.50;2.00;;;11.20;99.90;;;;;;5073762;28;20207;-88
2022/09/20 11:15:09;;;;;;;3.40;1.83;;;11.20;99.90;;;;;;5073701;28;20207;-89
2022/09/20 11:17:44;;;;;;;4.80;2.20;;;11.10;99.90;;;;;;5073452;28;20246;-89
2022/09/20 11:20:22;;;;;;;4.40;2.00;;;11.10;99.90;;;;;;5074051;28;20206;-89
2022/09/20 11:22:59;;;;;;;2.53;1.90;;;11.00;99.90;;;;;;5072930;28;20938;-90
2022/09/20 11:25:37;;;;;;;3.50;2.00;;;11.00;99.90;;;;;;5056251;28;20217;-89
2022/09/20 11:28:18;;;;;;;3.77;2.40;;;11.00;99.90;;;;;;5073105;28;20215;-89
2022/09/20 11:31:05;;;;;;;4.13;2.73;;;11.00;99.90;;;;;;5073719;28;20280;-90
2022/09/20 11:33:41;;;;;;;2.80;2.13;;;10.90;99.90;;;;;;5056815;28;20563;-90
2022/09/20 11:36:17;;;;;;;3.57;2.60;;;10.90;99.90;;;;;;5073192;28;20203;-89
2022/09/20 11:38:52;;;;;;;2.90;2.10;;;10.90;99.90;;;;;;5073908;28;20227;-90
2022/09/20 11:41:27;;;;;;;5.97;2.47;;;10.80;99.90;;;;;;5056483;28;20198;-90
2022/09/20 11:44:05;;;;;;;3.70;2.70;;;10.70;99.90;;;;;;5073156;28;20213;-89
2022/09/20 11:46:46;;;;;;;3.80;2.37;;;10.80;99.90;;;;;;5088086;28;20221;-90
2022/09/20 11:49:23;;;;;;;5.93;2.40;;;10.80;99.90;;;;;;5093441;28;20207;-91
2022/09/20 11:52:25;;;;;;;3.47;2.40;;;10.70;99.90;;;;;;5092835;28;20206;-90
2022/09/20 11:55:27;;;;;;;2.80;2.10;;;10.70;99.90;;;;;;5089194;28;20221;-91
2022/09/20 11:58:03;;;;;;;3.43;2.67;;;10.70;99.90;;;;;;5073143;28;20237;-89
2022/09/20 12:00:40;;;;;;;4.70;2.60;;;10.70;99.90;;;;;;5074091;28;20215;-89
2022/09/20 12:03:31;;;;;;;4.73;2.43;;;10.70;99.90;;;;;;5086618;28;20214;-90
2022/09/20 12:06:04;;;;;;;4.17;2.60;;;10.60;99.90;;;;;;5098069;28;20210;-90
2022/09/20 12:08:38;;;;;;;6.60;3.00;;;10.60;99.90;;;;;;5097911;28;20612;-90
2022/09/20 12:11:11;;;;;;;4.50;2.87;;;10.60;99.90;;;;;;5097614;28;20590;-90
2022/09/20 12:13:53;;;;;;;5.20;2.50;;;10.60;99.90;;;;;;5096390;28;20199;-90
2022/09/20 12:16:40;;;;;;;3.07;2.30;;;10.70;99.90;;;;;;5096750;28;20215;-91
2022/09/20 12:19:39;;;;;;;5.17;2.50;;;10.70;99.90;;;;;;5097234;28;20644;-90
2022/09/20 12:22:30;;;;;;;4.33;2.70;;;10.60;99.90;;;;;;5098794;28;20207;-89
2022/09/20 12:25:38;;;;;;;2.63;2.40;;;10.70;99.90;;;;;;5099624;28;20643;-90
2022/09/20 12:28:16;;;;;;;4.90;2.40;;;10.70;99.90;;;;;;5037446;28;20247;-89
2022/09/20 12:30:48;;;;;;;3.90;2.70;;;10.60;99.90;;;;;;5024105;28;20565;-89
2022/09/20 12:33:23;;;;;;;4.63;2.80;;;10.70;99.90;;;;;;5059335;28;20551;-89
2022/09/20 12:36:13;;;;;;;4.40;2.70;;;10.70;99.90;;;;;;5077688;28;20204;-89
2022/09/20 12:39:05;;;;;;;4.20;2.60;;;10.70;99.90;;;;;;5077470;28;20242;-89
2022/09/20 12:41:51;;;;;;;6.20;2.60;;;10.80;99.90;;;;;;5092702;28;20685;-92
2022/09/20 12:44:36;;;;;;;4.80;2.93;;;10.70;99.90;;;;;;5097063;28;20207;-90
2022/09/20 12:47:16;;;;;;;7.13;3.00;;;10.70;99.90;;;;;;5097225;28;20207;-90
2022/09/20 12:53:13;;;;;;;6.80;3.00;;;10.70;99.90;;;;;;5095893;28;20682;-90
2022/09/20 12:55:51;;;;;;;4.97;3.40;;;10.70;99.90;;;;;;5096820;28;20211;-91
2022/09/20 12:58:50;;;;;;;5.90;2.70;;;10.60;99.90;;;;;;5097821;28;20277;-90
2022/09/20 13:01:36;;;;;;;5.13;2.70;;;10.60;99.90;;;;;;5098379;28;20248;-90
2022/09/20 13:04:54;;;;;;;4.90;3.13;;;10.60;99.90;;;;;;5098579;28;20238;-90
2022/09/20 13:07:52;;;;;;;3.90;2.97;;;10.60;99.90;;;;;;5115414;28;20199;-90
2022/09/20 13:10:36;;;;;;;5.63;3.97;;;10.60;99.90;;;;;;5108870;28;20294;-91
2022/09/20 13:13:36;;;;;;;6.13;3.80;;;10.60;99.90;;;;;;5098986;28;20214;-89
2022/09/20 13:16:18;;;;;;;6.63;4.20;;;10.60;99.90;;;;;;5099106;28;20565;-91
2022/09/20 13:18:53;;;;;;;14.90;7.60;;;10.60;99.90;;;;;;5089888;28;20958;-90
2022/09/20 13:21:25;;;;;;;10.50;7.70;;;10.60;99.90;;;;;;5076286;28;20221;-89
2022/09/20 13:23:58;;;;;;;12.33;9.07;;;10.60;99.90;;;;;;5075837;28;20321;-91
2022/09/20 13:26:36;;;;;;;13.23;10.10;;;10.60;99.90;;;;;;5075767;28;20222;-90
2022/09/20 13:29:10;;;;;;;19.13;14.00;;;10.60;99.90;;;;;;5086764;28;20568;-90
2022/09/20 13:31:41;;;;;;;23.40;16.27;;;10.60;99.90;;;;;;5095008;28;20207;-89
2022/09/20 13:34:23;;;;;;;22.40;18.33;;;10.60;99.90;;;;;;5095740;28;20203;-89
2022/09/20 13:36:58;;;;;;;23.10;17.10;;;10.60;99.90;;;;;;5095999;28;20721;-90
2022/09/20 13:39:36;;;;;;;22.93;16.90;;;10.70;99.90;;;;;;5095489;28;20243;-90
2022/09/20 13:42:18;;;;;;;26.43;18.27;;;10.70;99.90;;;;;;5094787;28;20207;-90
2022/09/20 13:44:50;;;;;;;26.63;18.30;;;10.70;99.90;;;;;;5097906;28;20210;-90
2022/09/20 13:47:28;;;;;;;30.80;20.47;;;10.70;99.90;;;;;;5095279;28;20214;-89
2022/09/20 13:50:11;;;;;;;31.83;20.80;;;10.70;99.90;;;;;;5095094;28;20221;-88
2022/09/20 13:52:47;;;;;;;26.23;20.60;;;10.70;99.90;;;;;;5097433;28;20201;-91
2022/09/20 13:55:29;;;;;;;27.13;19.90;;;10.70;99.90;;;;;;5097789;28;20217;-90
2022/09/20 13:58:06;;;;;;;26.83;20.73;;;10.70;99.90;;;;;;5097982;28;20203;-90
2022/09/20 14:00:46;;;;;;;28.77;21.77;;;10.70;99.90;;;;;;5091816;28;20199;-90
2022/09/20 14:03:19;;;;;;;26.20;20.40;;;10.70;99.90;;;;;;5081284;28;20278;-90
2022/09/20 14:05:52;;;;;;;29.10;20.60;;;10.70;99.90;;;;;;5058581;28;20207;-90
2022/09/20 14:08:27;;;;;;;25.23;19.37;;;10.70;99.90;;;;;;5075088;28;20215;-90
2022/09/20 14:11:09;;;;;;;26.17;18.43;;;10.80;99.90;;;;;;5075544;28;20203;-90
2022/09/20 14:13:45;;;;;;;25.77;18.00;;;10.80;99.90;;;;;;5074543;28;20222;-93
2022/09/20 14:16:19;;;;;;;24.60;17.27;;;10.90;99.90;;;;;;5075678;28;20679;-90
2022/09/20 14:18:52;;;;;;;18.77;14.20;;;10.90;99.90;;;;;;5084100;28;20243;-90